Time;durP1;ratioP1;P1;durP2;ratioP2;P2;SDS_P1;SDS_P2;PMS_P1;PMS_P2;Temp;Humidity;BMP_temperature;BMP_pressure;BME280_temperature;BME280_humidity;BME280_pressure;Samples;Min_cycle;Max_cycle;Signal;HPM_P1;HPM_P2
2023/12/10 00:02:02;;;;;;;731.15;674.53;;;8.10;99.90;;;;;;6300919;22;20011;-81
2023/12/10 00:04:28;;;;;;;721.78;665.97;;;8.10;99.90;;;;;;6300184;22;20017;-81
2023/12/10 00:06:53;;;;;;;696.05;643.10;;;8.00;99.90;;;;;;6301818;22;20011;-81
2023/12/10 00:09:19;;;;;;;682.58;630.45;;;8.00;99.90;;;;;;6274599;22;20015;-80
2023/12/10 00:11:45;;;;;;;709.38;655.40;;;8.00;99.90;;;;;;6300572;22;20027;-81
2023/12/10 00:14:10;;;;;;;719.38;664.20;;;8.10;99.90;;;;;;6300495;22;20026;-81
2023/12/10 00:16:36;;;;;;;707.55;653.17;;;8.10;99.90;;;;;;6300219;22;20042;-81
2023/12/10 00:19:02;;;;;;;667.22;616.38;;;8.00;99.90;;;;;;6300831;22;20011;-81
2023/12/10 00:21:28;;;;;;;674.63;623.03;;;8.00;99.90;;;;;;6299194;22;20081;-81
2023/12/10 00:23:54;;;;;;;653.55;604.17;;;8.00;99.90;;;;;;6300744;22;20011;-81
2023/12/10 00:26:19;;;;;;;646.05;597.35;;;8.00;99.90;;;;;;6300810;22;20030;-81
2023/12/10 00:28:45;;;;;;;663.53;613.88;;;8.10;99.90;;;;;;6300719;22;20418;-80
2023/12/10 00:31:11;;;;;;;654.35;604.88;;;8.00;99.90;;;;;;6303145;22;20081;-81
2023/12/10 00:33:37;;;;;;;654.55;604.63;;;8.10;99.90;;;;;;6299061;22;20031;-81
2023/12/10 00:36:03;;;;;;;651.42;601.83;;;8.00;99.90;;;;;;6301069;22;20026;-81
2023/12/10 00:38:29;;;;;;;656.70;606.53;;;8.10;99.90;;;;;;6300235;22;20522;-80
2023/12/10 00:40:55;;;;;;;621.83;574.70;;;8.00;99.90;;;;;;6301502;22;20045;-81
2023/12/10 00:43:21;;;;;;;599.38;553.42;;;8.00;99.90;;;;;;6299365;22;20462;-80
2023/12/10 00:45:46;;;;;;;619.00;572.33;;;8.00;99.90;;;;;;6302308;22;20019;-81
2023/12/10 00:48:12;;;;;;;658.28;608.08;;;8.00;99.90;;;;;;6301206;22;20515;-81
2023/12/10 00:50:38;;;;;;;622.83;575.78;;;8.00;99.90;;;;;;6300467;22;20132;-80
2023/12/10 00:53:04;;;;;;;603.65;557.03;;;8.00;99.90;;;;;;6299975;22;20050;-81
2023/12/10 00:55:30;;;;;;;632.08;583.70;;;8.00;99.90;;;;;;6300624;22;20015;-81
2023/12/10 00:57:55;;;;;;;624.15;577.38;;;8.10;99.90;;;;;;6318790;22;20502;-81
2023/12/10 01:00:22;;;;;;;594.55;550.30;;;8.10;99.90;;;;;;6305174;22;20033;-81
2023/12/10 01:02:49;;;;;;;631.33;584.13;;;8.10;99.90;;;;;;6304148;22;20465;-81
2023/12/10 01:05:15;;;;;;;665.92;614.58;;;8.00;99.90;;;;;;6305103;22;20466;-81
2023/12/10 01:07:41;;;;;;;592.97;548.38;;;8.00;99.90;;;;;;6333476;22;20010;-81
2023/12/10 01:10:07;;;;;;;632.42;584.75;;;8.00;99.90;;;;;;6332407;22;20467;-81
2023/12/10 01:12:36;;;;;;;631.88;584.35;;;8.00;99.90;;;;;;6333504;22;20094;-81
2023/12/10 01:15:10;;;;;;;661.47;611.97;;;8.10;99.90;;;;;;6332889;22;20018;-81
2023/12/10 01:17:36;;;;;;;718.50;663.60;;;8.00;99.90;;;;;;6304690;22;20522;-81
2023/12/10 01:20:03;;;;;;;774.50;714.40;;;8.00;99.90;;;;;;6333372;22;20018;-81
2023/12/10 01:22:30;;;;;;;770.47;710.53;;;7.90;99.90;;;;;;6305601;22;20015;-81
2023/12/10 01:24:56;;;;;;;758.08;699.55;;;7.90;99.90;;;;;;6304481;22;20014;-81
2023/12/10 01:27:23;;;;;;;752.50;694.67;;;7.80;99.90;;;;;;6306355;22;20018;-81
2023/12/10 01:29:49;;;;;;;779.50;717.80;;;7.80;99.90;;;;;;6331422;22;20053;-81
2023/12/10 01:32:15;;;;;;;797.15;734.63;;;7.70;99.90;;;;;;6304969;22;20015;-81
2023/12/10 01:34:41;;;;;;;777.63;716.67;;;7.70;99.90;;;;;;6332957;22;20088;-81
2023/12/10 01:37:07;;;;;;;795.45;732.58;;;7.70;99.90;;;;;;6332056;22;20086;-80
2023/12/10 01:39:33;;;;;;;783.13;720.85;;;7.60;99.90;;;;;;6332780;22;20057;-81
2023/12/10 01:42:00;;;;;;;788.00;726.20;;;7.60;99.90;;;;;;6305390;22;20022;-81
2023/12/10 01:44:26;;;;;;;803.75;739.05;;;7.60;99.90;;;;;;6276819;22;20439;-81
2023/12/10 01:46:54;;;;;;;794.17;731.50;;;7.60;99.90;;;;;;6333388;22;20014;-81
2023/12/10 01:49:21;;;;;;;762.22;702.50;;;7.60;99.90;;;;;;6304691;22;20019;-81
2023/12/10 01:51:47;;;;;;;768.67;708.20;;;7.60;99.90;;;;;;6304013;22;20058;-81
2023/12/10 01:54:21;;;;;;;799.05;736.80;;;7.50;99.90;;;;;;6304375;22;20052;-81
2023/12/10 01:56:49;;;;;;;743.03;685.10;;;7.50;99.90;;;;;;6304621;22;20023;-82
2023/12/10 01:59:16;;;;;;;766.50;706.75;;;7.50;99.90;;;;;;6330846;22;20098;-81
2023/12/10 02:01:43;;;;;;;769.00;709.00;;;7.50;99.90;;;;;;6332870;22;20387;-81
2023/12/10 02:04:09;;;;;;;806.55;742.45;;;7.50;99.90;;;;;;6304476;22;20048;-81
2023/12/10 02:06:35;;;;;;;774.22;713.03;;;7.50;99.90;;;;;;6303675;22;20409;-81
2023/12/10 02:09:00;;;;;;;802.50;739.80;;;7.50;99.90;;;;;;6332901;22;20014;-81
2023/12/10 02:11:26;;;;;;;743.80;686.97;;;7.50;99.90;;;;;;6304371;22;20018;-81
2023/12/10 02:13:52;;;;;;;789.30;727.53;;;7.50;99.90;;;;;;6302921;22;20590;-81
2023/12/10 02:16:18;;;;;;;811.65;746.33;;;7.50;99.90;;;;;;6304383;22;20076;-81
2023/12/10 02:18:43;;;;;;;815.03;749.95;;;7.50;99.90;;;;;;6331818;22;20015;-81
2023/12/10 02:21:09;;;;;;;817.50;750.45;;;7.50;99.90;;;;;;6303849;22;20102;-81
2023/12/10 02:23:43;;;;;;;846.50;778.38;;;7.50;99.90;;;;;;6303980;22;20050;-82
2023/12/10 02:26:09;;;;;;;784.17;722.50;;;7.50;99.90;;;;;;6303950;22;20018;-82
2023/12/10 02:28:35;;;;;;;799.40;736.70;;;7.50;99.90;;;;;;6302844;22;20021;-82
2023/12/10 02:31:01;;;;;;;784.85;724.08;;;7.60;99.90;;;;;;6279293;22;20098;-81
2023/12/10 02:33:27;;;;;;;791.38;729.42;;;7.50;99.90;;;;;;6330902;22;20085;-81
2023/12/10 02:35:53;;;;;;;880.67;809.05;;;7.50;99.90;;;;;;6279161;22;20107;-81
2023/12/10 02:38:21;;;;;;;806.85;742.65;;;7.50;99.90;;;;;;6304688;22;20021;-81
2023/12/10 02:40:47;;;;;;;864.50;788.67;;;7.60;99.90;;;;;;6303779;22;20029;-81
2023/12/10 02:43:14;;;;;;;780.67;719.50;;;7.50;99.90;;;;;;6331752;22;20084;-82
2023/12/10 02:45:40;;;;;;;818.53;751.35;;;7.50;99.90;;;;;;6303983;22;20080;-81
2023/12/10 02:48:05;;;;;;;896.03;815.90;;;7.50;99.90;;;;;;6303676;22;20007;-81
2023/12/10 02:50:31;;;;;;;800.78;736.45;;;7.50;99.90;;;;;;6331422;22;20079;-81
2023/12/10 02:52:57;;;;;;;871.63;799.25;;;7.50;99.90;;;;;;6304200;22;20132;-81
2023/12/10 02:55:22;;;;;;;796.53;732.45;;;7.50;99.90;;;;;;6277706;22;20092;-81
2023/12/10 02:57:49;;;;;;;856.45;785.03;;;7.50;99.90;;;;;;6302971;22;20019;-82
2023/12/10 03:00:16;;;;;;;803.83;739.80;;;7.50;99.90;;;;;;6304068;22;20113;-81
2023/12/10 03:02:42;;;;;;;800.20;737.80;;;7.50;99.90;;;;;;6302738;22;20092;-81
2023/12/10 03:05:08;;;;;;;763.72;704.63;;;7.50;99.90;;;;;;6304527;22;20033;-81
2023/12/10 03:07:34;;;;;;;784.20;722.25;;;7.40;99.90;;;;;;6303832;22;20014;-82
2023/12/10 03:10:00;;;;;;;759.42;700.97;;;7.50;99.90;;;;;;6330958;22;20011;-82
2023/12/10 03:12:26;;;;;;;874.70;799.28;;;7.50;99.90;;;;;;6304415;22;20422;-82
2023/12/10 03:14:52;;;;;;;793.03;731.00;;;7.50;99.90;;;;;;6302677;22;20019;-81
2023/12/10 03:17:17;;;;;;;802.58;738.30;;;7.40;99.90;;;;;;6304138;22;20356;-82
2023/12/10 03:19:44;;;;;;;784.97;723.88;;;7.40;99.90;;;;;;6305708;22;20408;-82
2023/12/10 03:22:10;;;;;;;807.97;743.55;;;7.50;99.90;;;;;;6306095;22;20122;-82
2023/12/10 03:24:35;;;;;;;812.47;746.72;;;7.40;99.90;;;;;;6305876;22;20022;-82
2023/12/10 03:27:01;;;;;;;886.50;810.35;;;7.50;99.90;;;;;;6305981;22;20351;-82
2023/12/10 03:29:27;;;;;;;815.13;750.10;;;7.40;99.90;;;;;;6303866;22;20343;-82
2023/12/10 03:31:53;;;;;;;781.30;720.50;;;7.40;99.90;;;;;;6306422;22;20109;-82
2023/12/10 03:34:18;;;;;;;816.15;750.92;;;7.40;99.90;;;;;;6305833;22;20018;-83
2023/12/10 03:36:44;;;;;;;834.03;765.67;;;7.40;99.90;;;;;;6305298;22;20109;-83
2023/12/10 03:39:10;;;;;;;790.92;728.92;;;7.40;99.90;;;;;;6305447;22;20019;-82
2023/12/10 03:41:36;;;;;;;854.58;783.60;;;7.40;99.90;;;;;;6305890;22;20117;-82
2023/12/10 03:44:01;;;;;;;927.08;842.38;;;7.40;99.90;;;;;;6304022;22;20042;-82
2023/12/10 03:46:27;;;;;;;904.72;827.28;;;7.30;99.90;;;;;;6305317;22;20337;-82
2023/12/10 03:48:53;;;;;;;844.20;775.25;;;7.40;99.90;;;;;;6306259;22;20493;-83
2023/12/10 03:51:19;;;;;;;926.08;842.50;;;7.30;99.90;;;;;;6304734;22;20042;-82
2023/12/10 03:53:45;;;;;;;852.95;782.03;;;7.40;99.90;;;;;;6306277;22;20496;-83
2023/12/10 03:56:11;;;;;;;857.55;785.55;;;7.30;99.90;;;;;;6306237;22;20054;-82
2023/12/10 03:58:36;;;;;;;868.05;796.95;;;7.30;99.90;;;;;;6297728;22;20027;-82
2023/12/10 04:01:02;;;;;;;869.30;795.38;;;7.40;99.90;;;;;;6302388;22;20046;-82
2023/12/10 04:03:28;;;;;;;947.90;863.42;;;7.30;99.90;;;;;;6273509;22;20427;-82
2023/12/10 04:05:54;;;;;;;909.95;831.67;;;7.30;99.90;;;;;;6299359;22;20027;-82
2023/12/10 04:08:19;;;;;;;854.17;783.05;;;7.30;99.90;;;;;;6300330;22;20424;-82
2023/12/10 04:10:45;;;;;;;830.72;763.70;;;7.30;99.90;;;;;;6299293;22;20027;-82
2023/12/10 04:13:11;;;;;;;877.40;803.70;;;7.40;99.90;;;;;;6300466;22;20019;-82
2023/12/10 04:15:37;;;;;;;835.08;767.92;;;7.40;99.90;;;;;;6300578;22;20094;-81
2023/12/10 04:18:03;;;;;;;897.58;823.63;;;7.30;99.90;;;;;;6299793;22;20023;-81
2023/12/10 04:20:28;;;;;;;914.38;835.90;;;7.40;99.90;;;;;;6298909;22;20069;-81
2023/12/10 04:22:54;;;;;;;859.22;789.30;;;7.40;99.90;;;;;;6299912;22;20015;-81
2023/12/10 04:25:20;;;;;;;912.90;836.13;;;7.40;99.90;;;;;;6302271;22;20038;-81
2023/12/10 04:27:45;;;;;;;908.40;831.90;;;7.40;99.90;;;;;;6299520;22;20066;-81
2023/12/10 04:30:11;;;;;;;913.22;834.03;;;7.40;99.90;;;;;;6301990;22;20320;-81
2023/12/10 04:32:37;;;;;;;886.35;811.70;;;7.40;99.90;;;;;;6299242;22;20108;-81
2023/12/10 04:35:03;;;;;;;872.45;801.08;;;7.50;99.90;;;;;;6300370;22;20015;-80
2023/12/10 04:37:29;;;;;;;902.65;823.72;;;7.40;99.90;;;;;;6302315;22;20021;-80
2023/12/10 04:39:55;;;;;;;862.35;791.55;;;7.50;99.90;;;;;;6299303;22;20030;-81
2023/12/10 04:42:21;;;;;;;850.42;781.50;;;7.50;99.90;;;;;;6300483;22;20051;-81
2023/12/10 04:44:46;;;;;;;818.40;754.15;;;7.50;99.90;;;;;;6300853;22;20054;-81
2023/12/10 04:47:12;;;;;;;854.95;786.22;;;7.50;99.90;;;;;;6300899;22;20008;-81
2023/12/10 04:49:38;;;;;;;855.38;785.53;;;7.50;99.90;;;;;;6300739;22;20019;-80
2023/12/10 04:52:05;;;;;;;934.25;851.28;;;7.60;99.90;;;;;;6302211;22;20335;-80
2023/12/10 04:54:31;;;;;;;815.03;751.13;;;7.50;99.90;;;;;;6301254;22;20076;-81
2023/12/10 04:56:57;;;;;;;877.67;802.03;;;7.60;99.90;;;;;;6305118;22;20062;-80
2023/12/10 04:59:23;;;;;;;883.75;809.53;;;7.60;99.90;;;;;;6304004;22;20054;-81
2023/12/10 05:01:48;;;;;;;843.58;774.30;;;7.60;99.90;;;;;;6304169;22;20014;-80
2023/12/10 05:04:14;;;;;;;801.25;738.28;;;7.70;99.90;;;;;;6304906;22;20093;-80
2023/12/10 05:06:40;;;;;;;902.28;824.20;;;7.70;99.90;;;;;;6304991;22;20023;-81
2023/12/10 05:09:05;;;;;;;875.30;801.45;;;7.80;99.90;;;;;;6304374;22;20010;-80
2023/12/10 05:11:31;;;;;;;882.65;804.83;;;7.80;99.90;;;;;;6304525;22;20028;-81
2023/12/10 05:13:57;;;;;;;938.88;853.83;;;7.90;99.90;;;;;;6304358;22;20018;-80
2023/12/10 05:16:23;;;;;;;972.97;882.55;;;7.80;99.90;;;;;;6332005;22;20101;-80
2023/12/10 05:18:49;;;;;;;984.95;892.58;;;7.90;99.90;;;;;;6279217;22;20054;-80
2023/12/10 05:21:14;;;;;;;944.03;855.28;;;7.90;99.90;;;;;;6333561;22;20019;-80
2023/12/10 05:23:40;;;;;;;992.83;896.72;;;8.00;99.90;;;;;;6331666;22;20433;-80
2023/12/10 05:26:06;;;;;;;837.33;769.58;;;8.00;99.90;;;;;;6305356;22;20090;-80
2023/12/10 05:28:31;;;;;;;928.42;846.30;;;8.00;99.90;;;;;;6303490;22;20054;-81
2023/12/10 05:30:57;;;;;;;1049.30;941.28;;;8.00;99.90;;;;;;6304382;22;20018;-80
2023/12/10 05:33:23;;;;;;;967.03;878.67;;;8.00;99.90;;;;;;6304981;22;20023;-80
2023/12/10 05:35:49;;;;;;;947.28;860.35;;;8.00;99.90;;;;;;6331568;22;20018;-80
2023/12/10 05:38:15;;;;;;;950.53;866.25;;;8.00;99.90;;;;;;6304994;22;20343;-80
2023/12/10 05:40:40;;;;;;;993.25;898.33;;;8.00;99.90;;;;;;6332381;22;20011;-80
2023/12/10 05:43:06;;;;;;;1221.43;997.28;;;8.10;99.90;;;;;;6303766;22;20022;-80
2023/12/10 05:45:32;;;;;;;941.65;854.05;;;8.00;99.90;;;;;;6332010;22;20040;-80
2023/12/10 05:47:58;;;;;;;947.28;856.88;;;8.10;99.90;;;;;;6304392;22;20014;-80
2023/12/10 05:50:24;;;;;;;925.75;843.65;;;8.10;99.90;;;;;;6332607;22;20027;-80
2023/12/10 05:52:49;;;;;;;849.92;776.58;;;8.10;99.90;;;;;;6332606;22;20095;-81
2023/12/10 05:55:15;;;;;;;884.35;808.00;;;8.10;99.90;;;;;;6333031;22;20091;-80
2023/12/10 05:57:41;;;;;;;945.00;859.03;;;8.10;99.90;;;;;;6297812;22;20019;-80
2023/12/10 06:00:08;;;;;;;912.63;829.05;;;8.10;99.90;;;;;;6300984;22;20019;-80
2023/12/10 06:02:34;;;;;;;736.97;680.97;;;8.10;99.90;;;;;;6273585;22;20115;-80
2023/12/10 06:04:59;;;;;;;747.50;687.65;;;8.10;99.90;;;;;;6298589;22;20027;-80
2023/12/10 06:07:25;;;;;;;845.70;777.70;;;8.10;99.90;;;;;;6300069;22;20019;-80
2023/12/10 06:09:51;;;;;;;823.03;757.25;;;8.10;99.90;;;;;;6300115;22;20080;-80
2023/12/10 06:12:17;;;;;;;838.45;770.38;;;8.10;99.90;;;;;;6300431;22;20076;-80
2023/12/10 06:14:42;;;;;;;837.67;768.33;;;8.10;99.90;;;;;;6273246;22;20011;-83
2023/12/10 06:17:09;;;;;;;980.35;880.22;;;8.10;99.90;;;;;;6299745;22;20019;-79
2023/12/10 06:19:35;;;;;;;797.10;734.53;;;7.90;99.90;;;;;;6298222;22;20348;-80
2023/12/10 06:22:02;;;;;;;756.60;697.47;;;8.10;99.90;;;;;;6274662;22;20037;-80
2023/12/10 06:24:28;;;;;;;810.95;747.38;;;8.10;99.90;;;;;;6298611;22;20014;-80
2023/12/10 06:26:54;;;;;;;1014.88;912.33;;;8.10;99.90;;;;;;6300863;22;20015;-80
2023/12/10 06:29:20;;;;;;;861.30;788.97;;;8.20;99.90;;;;;;6298277;22;20029;-80
2023/12/10 06:31:45;;;;;;;823.05;754.88;;;8.10;99.90;;;;;;6301711;22;20051;-80
2023/12/10 06:34:11;;;;;;;798.50;735.63;;;8.20;99.90;;;;;;6298825;22;20049;-81
2023/12/10 06:36:37;;;;;;;971.60;882.90;;;8.20;99.90;;;;;;6300946;22;20015;-80
2023/12/10 06:39:03;;;;;;;852.85;782.88;;;8.10;99.90;;;;;;6299531;22;20015;-80
2023/12/10 06:41:28;;;;;;;778.55;717.05;;;8.10;99.90;;;;;;6300114;22;20073;-80
2023/12/10 06:43:54;;;;;;;847.30;776.55;;;8.20;99.90;;;;;;6300385;22;20309;-80
2023/12/10 06:46:20;;;;;;;976.78;886.80;;;8.20;99.90;;;;;;6300767;22;20353;-80
2023/12/10 06:48:46;;;;;;;921.75;841.90;;;8.30;99.90;;;;;;6298488;22;20431;-80
2023/12/10 06:51:12;;;;;;;780.35;720.38;;;8.30;99.90;;;;;;6273772;22;20023;-81
2023/12/10 06:53:39;;;;;;;843.20;772.97;;;8.30;99.90;;;;;;6299654;22;20019;-80
2023/12/10 06:56:07;;;;;;;878.25;804.67;;;8.30;99.90;;;;;;6299564;22;20034;-80
2023/12/10 06:58:32;;;;;;;738.15;681.22;;;8.30;99.90;;;;;;6297994;22;20020;-81
2023/12/10 07:00:58;;;;;;;841.97;772.50;;;8.40;99.90;;;;;;6298040;22;20036;-80
2023/12/10 07:03:24;;;;;;;786.53;724.03;;;8.30;99.90;;;;;;6299270;22;20019;-80
2023/12/10 07:05:49;;;;;;;743.70;685.80;;;8.40;99.90;;;;;;6300743;22;20027;-80
2023/12/10 07:08:16;;;;;;;777.58;717.03;;;8.40;99.90;;;;;;6300308;22;20432;-80
2023/12/10 07:10:42;;;;;;;773.67;713.05;;;8.40;99.90;;;;;;6301279;22;20110;-80
2023/12/10 07:13:07;;;;;;;912.70;833.83;;;8.40;99.90;;;;;;6300994;22;20046;-80
2023/12/10 07:15:33;;;;;;;804.38;738.88;;;8.40;99.90;;;;;;6297704;22;20023;-80
2023/12/10 07:18:00;;;;;;;839.80;769.67;;;8.40;99.90;;;;;;6298894;22;20025;-81
2023/12/10 07:20:25;;;;;;;794.78;730.88;;;8.40;99.90;;;;;;6299090;22;20023;-80
2023/12/10 07:22:51;;;;;;;786.20;722.70;;;8.30;99.90;;;;;;6300528;22;20029;-80
2023/12/10 07:25:18;;;;;;;745.03;686.83;;;8.30;99.90;;;;;;6298995;22;20030;-80
2023/12/10 07:27:45;;;;;;;766.00;704.13;;;8.30;99.90;;;;;;6300764;22;20082;-80
2023/12/10 07:30:11;;;;;;;790.28;726.00;;;8.40;99.90;;;;;;6297438;22;20015;-80
2023/12/10 07:32:37;;;;;;;799.53;735.58;;;8.40;99.90;;;;;;6300731;22;20011;-80
2023/12/10 07:35:03;;;;;;;792.00;728.85;;;8.40;99.90;;;;;;6298813;22;20103;-80
2023/12/10 07:37:29;;;;;;;756.35;698.92;;;8.40;99.90;;;;;;6300390;22;20332;-80
2023/12/10 07:39:55;;;;;;;725.50;669.60;;;8.40;99.90;;;;;;6301204;22;20015;-80
2023/12/10 07:42:21;;;;;;;738.92;683.00;;;8.40;99.90;;;;;;6298759;22;20019;-80
2023/12/10 07:44:47;;;;;;;757.30;698.72;;;8.40;99.90;;;;;;6296940;22;20148;-80
2023/12/10 07:47:13;;;;;;;738.45;680.83;;;8.40;99.90;;;;;;6298532;22;20056;-81
2023/12/10 07:49:38;;;;;;;759.08;700.70;;;8.40;99.90;;;;;;6299504;22;20019;-81
2023/12/10 07:52:04;;;;;;;813.30;746.65;;;8.40;99.90;;;;;;6301266;22;20020;-80
2023/12/10 07:54:30;;;;;;;752.38;693.80;;;8.50;99.90;;;;;;6297991;22;20524;-80
2023/12/10 07:56:56;;;;;;;793.63;728.55;;;8.40;99.90;;;;;;6300438;22;20023;-81
2023/12/10 07:59:22;;;;;;;761.08;703.30;;;8.50;99.90;;;;;;6330648;22;20048;-80
2023/12/10 08:01:47;;;;;;;785.22;721.35;;;8.50;99.90;;;;;;6304001;22;20024;-81
2023/12/10 08:04:13;;;;;;;785.65;723.47;;;8.40;99.90;;;;;;6303549;22;20014;-81
2023/12/10 08:06:39;;;;;;;745.00;687.97;;;8.40;99.90;;;;;;6332396;22;20022;-81
2023/12/10 08:09:05;;;;;;;732.22;677.63;;;8.40;99.90;;;;;;6305221;22;20014;-81
2023/12/10 08:11:32;;;;;;;834.50;765.30;;;8.40;99.90;;;;;;6304142;22;20447;-81
2023/12/10 08:13:57;;;;;;;785.00;721.95;;;8.40;99.90;;;;;;6304897;22;20439;-82
2023/12/10 08:16:23;;;;;;;763.42;704.30;;;8.40;99.90;;;;;;6305597;22;20021;-82
2023/12/10 08:18:50;;;;;;;744.35;687.42;;;8.30;99.90;;;;;;6303417;22;20079;-82
2023/12/10 08:21:16;;;;;;;829.33;759.60;;;8.30;99.90;;;;;;6304030;22;20018;-82
2023/12/10 08:23:42;;;;;;;848.25;780.10;;;8.30;99.90;;;;;;6332520;22;20398;-82
2023/12/10 08:26:08;;;;;;;878.33;801.05;;;8.40;99.90;;;;;;6304806;22;20018;-82
2023/12/10 08:28:34;;;;;;;791.45;727.72;;;8.40;99.90;;;;;;6304213;22;20716;-82
2023/12/10 08:31:00;;;;;;;789.13;727.60;;;8.50;99.90;;;;;;6304808;22;20519;-81
2023/12/10 08:33:26;;;;;;;757.22;698.75;;;8.50;99.90;;;;;;6331902;22;20042;-81
2023/12/10 08:35:51;;;;;;;802.80;739.50;;;8.40;99.90;;;;;;6305182;22;20373;-81
2023/12/10 08:38:17;;;;;;;840.67;768.45;;;8.40;99.90;;;;;;6305294;22;20075;-82
2023/12/10 08:40:43;;;;;;;794.72;733.08;;;8.40;99.90;;;;;;6303916;22;20049;-80
2023/12/10 08:43:09;;;;;;;924.20;841.70;;;8.40;99.90;;;;;;6304506;22;20019;-81
2023/12/10 08:45:34;;;;;;;808.05;742.75;;;8.40;99.90;;;;;;6333065;22;20019;-80
2023/12/10 08:48:00;;;;;;;886.22;810.15;;;8.40;99.90;;;;;;6304293;22;20022;-80
2023/12/10 08:50:26;;;;;;;745.75;688.63;;;8.30;99.90;;;;;;6305430;22;20058;-80
2023/12/10 08:52:52;;;;;;;764.42;705.03;;;8.30;99.90;;;;;;6304522;22;20023;-80
2023/12/10 08:55:17;;;;;;;804.78;742.15;;;8.40;99.90;;;;;;6304745;22;20023;-80
2023/12/10 08:57:44;;;;;;;820.58;754.75;;;8.30;99.90;;;;;;6299232;22;20057;-81
2023/12/10 09:00:10;;;;;;;807.20;742.63;;;8.30;99.90;;;;;;6300447;22;20064;-80
2023/12/10 09:02:36;;;;;;;919.05;834.38;;;8.30;99.90;;;;;;6299811;22;20755;-81
2023/12/10 09:05:02;;;;;;;785.75;725.25;;;8.30;99.90;;;;;;6302407;22;20153;-81
2023/12/10 09:07:29;;;;;;;846.97;779.05;;;8.40;99.90;;;;;;6300542;22;20102;-81
2023/12/10 09:09:59;;;;;;;779.97;718.97;;;8.30;99.90;;;;;;6301614;22;20018;-80
2023/12/10 09:12:27;;;;;;;851.75;782.10;;;8.30;99.90;;;;;;6299850;22;20058;-81
2023/12/10 09:14:53;;;;;;;833.28;762.15;;;8.30;99.90;;;;;;6299743;22;20019;-80
2023/12/10 09:17:20;;;;;;;756.63;697.97;;;8.30;99.90;;;;;;6299659;22;20015;-80
2023/12/10 09:19:46;;;;;;;783.97;722.47;;;8.30;99.90;;;;;;6299734;22;20015;-80
2023/12/10 09:22:12;;;;;;;714.30;659.03;;;8.30;99.90;;;;;;6298444;22;20073;-80
2023/12/10 09:24:39;;;;;;;804.72;738.90;;;8.40;99.90;;;;;;6301554;22;20086;-79
2023/12/10 09:27:05;;;;;;;814.35;748.95;;;8.40;99.90;;;;;;6299897;22;20505;-79
2023/12/10 09:29:38;;;;;;;767.50;706.40;;;8.30;99.90;;;;;;6297349;22;20031;-80
2023/12/10 09:32:06;;;;;;;801.42;737.58;;;8.30;99.90;;;;;;6300131;22;20057;-79
2023/12/10 09:34:32;;;;;;;770.70;710.85;;;8.30;99.90;;;;;;6301518;22;20019;-79
2023/12/10 09:36:58;;;;;;;723.45;669.13;;;8.30;99.90;;;;;;6273089;22;20065;-82
2023/12/10 09:39:24;;;;;;;775.33;710.70;;;8.20;99.90;;;;;;6298700;22;20019;-80
2023/12/10 09:41:50;;;;;;;767.40;708.22;;;8.20;99.90;;;;;;6301621;22;20015;-79
2023/12/10 09:44:16;;;;;;;811.65;745.55;;;8.30;99.90;;;;;;6297210;22;20156;-79
2023/12/10 09:46:42;;;;;;;799.40;735.90;;;8.30;99.90;;;;;;6301547;22;20156;-80
2023/12/10 09:49:07;;;;;;;781.72;720.13;;;8.30;99.90;;;;;;6300272;22;20445;-80
2023/12/10 09:51:34;;;;;;;784.22;721.15;;;8.30;99.90;;;;;;6301044;22;20019;-79
2023/12/10 09:53:59;;;;;;;838.28;769.03;;;8.30;99.90;;;;;;6273817;22;20021;-80
2023/12/10 09:56:25;;;;;;;742.03;686.53;;;8.30;99.90;;;;;;6298258;22;20057;-80
2023/12/10 09:58:51;;;;;;;779.42;718.15;;;8.30;99.90;;;;;;6298102;22;20015;-80
2023/12/10 10:01:17;;;;;;;750.13;691.65;;;8.30;99.90;;;;;;6299553;22;20031;-80
2023/12/10 10:03:43;;;;;;;795.60;732.38;;;8.40;99.90;;;;;;6299712;22;20031;-80
2023/12/10 10:06:08;;;;;;;859.55;786.63;;;8.40;99.90;;;;;;6301943;22;20100;-80
2023/12/10 10:08:34;;;;;;;751.30;692.80;;;8.30;99.90;;;;;;6298494;22;20463;-80
2023/12/10 10:11:00;;;;;;;707.47;654.38;;;8.30;99.90;;;;;;6301082;22;20100;-80
2023/12/10 10:13:26;;;;;;;767.00;707.63;;;8.30;99.90;;;;;;6297260;22;20031;-80
2023/12/10 10:15:53;;;;;;;780.92;718.10;;;8.40;99.90;;;;;;6301030;22;20456;-79
2023/12/10 10:18:20;;;;;;;860.58;786.42;;;8.30;99.90;;;;;;6297315;22;20015;-80
2023/12/10 10:20:47;;;;;;;764.13;702.47;;;8.30;99.90;;;;;;6297925;22;20022;-80
2023/12/10 10:23:14;;;;;;;741.42;684.67;;;8.40;99.90;;;;;;6299264;22;20054;-79
2023/12/10 10:25:40;;;;;;;805.33;741.50;;;8.30;99.90;;;;;;6298271;22;20023;-79
2023/12/10 10:28:09;;;;;;;801.50;737.53;;;8.30;99.90;;;;;;6298944;22;20015;-80
2023/12/10 10:30:35;;;;;;;842.17;769.75;;;8.30;99.90;;;;;;6300454;22;20016;-80
2023/12/10 10:33:01;;;;;;;750.30;692.95;;;8.30;99.90;;;;;;6297809;22;20051;-80
2023/12/10 10:35:27;;;;;;;774.58;713.10;;;8.30;99.90;;;;;;6299179;22;20023;-80
2023/12/10 10:37:54;;;;;;;771.00;709.70;;;8.20;99.90;;;;;;6297928;22;20880;-79
2023/12/10 10:40:20;;;;;;;787.88;726.28;;;8.20;99.90;;;;;;6298416;22;20030;-79
2023/12/10 10:42:46;;;;;;;841.22;769.92;;;8.30;99.90;;;;;;6300218;22;20034;-80
2023/12/10 10:45:12;;;;;;;782.10;719.17;;;8.20;99.90;;;;;;6300889;22;20424;-80
2023/12/10 10:47:38;;;;;;;767.65;706.75;;;8.20;99.90;;;;;;6297863;22;20388;-80
2023/12/10 10:50:06;;;;;;;816.97;748.00;;;8.30;99.90;;;;;;6298633;22;20603;-80
2023/12/10 10:52:34;;;;;;;776.08;714.47;;;8.30;99.90;;;;;;6299998;22;20043;-79
2023/12/10 10:55:00;;;;;;;921.60;835.40;;;8.20;99.90;;;;;;6300883;22;20094;-80
2023/12/10 10:57:29;;;;;;;783.15;719.05;;;8.30;99.90;;;;;;6295856;22;20034;-80
2023/12/10 10:59:55;;;;;;;902.17;819.33;;;8.30;99.90;;;;;;6298892;22;20018;-79
2023/12/10 11:02:22;;;;;;;751.03;692.38;;;8.30;99.90;;;;;;6273663;22;20023;-79
2023/12/10 11:04:50;;;;;;;878.38;801.17;;;8.40;99.90;;;;;;6272603;22;20088;-78
2023/12/10 11:07:18;;;;;;;841.53;769.65;;;8.50;99.90;;;;;;6272365;22;20015;-78
2023/12/10 11:09:56;;;;;;;853.78;780.55;;;8.40;99.90;;;;;;6300785;22;20091;-78
2023/12/10 11:12:42;;;;;;;792.08;727.53;;;8.50;99.90;;;;;;6273271;22;20023;-78
2023/12/10 11:15:17;;;;;;;828.85;759.20;;;8.40;99.90;;;;;;6271979;22;20105;-78
2023/12/10 11:17:51;;;;;;;795.67;729.45;;;8.40;99.90;;;;;;6299993;22;20026;-78
2023/12/10 11:20:34;;;;;;;;;;;8.40;99.90;;;;;;6273181;22;20055;-79
2023/12/10 11:23:03;;;;;;;915.40;833.08;;;8.40;99.90;;;;;;6271730;22;19919;-79
2023/12/10 11:25:29;;;;;;;875.88;795.13;;;8.50;99.90;;;;;;6272789;22;20517;-79
2023/12/10 11:27:57;;;;;;;817.15;750.45;;;8.50;99.90;;;;;;6271611;22;20026;-79
2023/12/10 11:30:23;;;;;;;895.88;812.30;;;8.50;99.90;;;;;;6272984;22;20020;-79
2023/12/10 11:32:49;;;;;;;836.95;766.75;;;8.50;99.90;;;;;;6299899;22;20018;-79
2023/12/10 11:35:15;;;;;;;791.75;728.05;;;8.60;99.90;;;;;;6300068;22;20332;-79
2023/12/10 11:37:43;;;;;;;813.00;744.13;;;8.50;99.90;;;;;;6273078;22;20462;-79
2023/12/10 11:40:10;;;;;;;832.47;763.88;;;8.50;99.90;;;;;;6274817;22;20024;-79
2023/12/10 11:42:36;;;;;;;854.80;783.72;;;8.50;99.90;;;;;;6274023;22;20026;-79
2023/12/10 11:45:04;;;;;;;775.13;713.47;;;8.50;99.90;;;;;;6301439;22;20019;-79
2023/12/10 11:47:30;;;;;;;811.22;743.28;;;8.60;99.90;;;;;;6249360;22;20353;-79
2023/12/10 11:49:56;;;;;;;831.78;764.15;;;8.60;99.90;;;;;;6300836;22;20389;-79
2023/12/10 11:52:22;;;;;;;906.95;826.58;;;8.60;99.90;;;;;;6275435;22;20027;-80
2023/12/10 11:54:48;;;;;;;872.70;797.60;;;8.60;99.90;;;;;;6274537;22;20025;-80
2023/12/10 11:57:14;;;;;;;906.05;825.40;;;8.70;99.90;;;;;;6278572;22;20023;-79
2023/12/10 11:59:40;;;;;;;841.13;771.90;;;8.70;99.90;;;;;;6304216;22;20122;-80
2023/12/10 12:02:07;;;;;;;835.83;764.28;;;8.70;99.90;;;;;;6305535;22;20019;-80
2023/12/10 12:04:33;;;;;;;757.80;699.55;;;8.70;99.90;;;;;;6304449;22;20014;-79
2023/12/10 12:06:59;;;;;;;780.55;718.20;;;8.70;99.90;;;;;;6305911;22;20026;-80
2023/12/10 12:09:25;;;;;;;876.10;801.35;;;8.60;99.90;;;;;;6305518;22;20307;-80
2023/12/10 12:11:51;;;;;;;803.38;738.05;;;8.60;99.90;;;;;;6333390;22;20023;-80
2023/12/10 12:14:19;;;;;;;938.50;853.22;;;8.60;99.90;;;;;;6332732;22;20385;-80